createdAt,value
2023-01-05T00:01:03.678Z,4.92
2023-01-05T00:04:11.447Z,4.83
2023-01-05T00:07:17.217Z,4.85
2023-01-05T00:10:41.077Z,4.22
2023-01-05T00:14:04.783Z,4.17
2023-01-05T00:17:29.464Z,3.70
2023-01-05T00:20:54.023Z,3.25
2023-01-05T00:23:59.973Z,3.42
2023-01-05T00:27:05.699Z,4.00
2023-01-05T00:30:11.253Z,3.60
2023-01-05T00:33:18.085Z,3.10
2023-01-05T00:36:26.603Z,3.30
2023-01-05T00:39:33.065Z,3.08
2023-01-05T00:42:39.268Z,3.27
2023-01-05T00:45:45.193Z,2.98
2023-01-05T00:48:52.424Z,3.35
2023-01-05T00:51:58.848Z,3.10
2023-01-05T00:55:04.097Z,3.75
2023-01-05T00:58:09.642Z,3.77
2023-01-05T01:01:15.531Z,3.30
2023-01-05T01:04:22.115Z,3.35
2023-01-05T01:07:28.519Z,3.17
2023-01-05T01:10:36.651Z,3.70
2023-01-05T01:13:42.775Z,3.95
2023-01-05T01:16:48.390Z,3.20
2023-01-05T01:19:54.560Z,3.20
2023-01-05T01:23:00.813Z,3.22
2023-01-05T01:26:06.440Z,3.40
2023-01-05T01:29:14.067Z,3.08
2023-01-05T01:32:21.982Z,3.50
2023-01-05T01:35:27.694Z,3.08
2023-01-05T01:38:33.142Z,2.90
2023-01-05T01:41:39.018Z,3.10
2023-01-05T01:45:15.931Z,3.30
2023-01-05T01:48:24.032Z,2.83
2023-01-05T01:51:42.804Z,3.27
2023-01-05T01:54:48.340Z,3.70
2023-01-05T01:57:55.609Z,3.80
2023-01-05T02:01:01.379Z,3.77
2023-01-05T02:04:07.950Z,3.67
2023-01-05T02:07:14.116Z,3.77
2023-01-05T02:10:19.436Z,4.12
2023-01-05T02:13:51.740Z,3.62
2023-01-05T02:17:24.092Z,4.12
2023-01-05T02:20:43.813Z,4.05
2023-01-05T02:24:23.080Z,3.77
2023-01-05T02:27:54.536Z,3.90
2023-01-05T02:31:29.124Z,4.10
2023-01-05T02:34:55.213Z,4.12
2023-01-05T02:38:12.670Z,4.53
2023-01-05T02:41:28.438Z,4.37
2023-01-05T02:44:33.790Z,3.80
2023-01-05T02:47:52.845Z,5.03
2023-01-05T02:51:08.245Z,4.13
2023-01-05T02:54:36.083Z,4.00
2023-01-05T02:57:54.471Z,4.10
2023-01-05T03:01:03.974Z,4.30
2023-01-05T03:04:21.665Z,4.25
2023-01-05T03:07:35.116Z,4.45
2023-01-05T03:11:00.350Z,4.37
2023-01-05T03:14:28.140Z,4.83
2023-01-05T03:17:41.891Z,4.97
2023-01-05T03:20:49.121Z,5.08
2023-01-05T03:24:12.917Z,4.87
2023-01-05T03:27:37.799Z,5.40
2023-01-05T03:31:09.850Z,5.85
2023-01-05T03:34:48.506Z,5.55
2023-01-05T03:38:17.881Z,5.10
2023-01-05T03:41:20.632Z,4.80
2023-01-05T03:44:28.455Z,5.37
2023-01-05T03:47:34.229Z,4.60
2023-01-05T03:50:39.881Z,5.42
2023-01-05T03:53:46.451Z,4.83
2023-01-05T03:56:52.761Z,4.75
2023-01-05T03:59:59.969Z,4.47
2023-01-05T04:03:07.177Z,4.55
2023-01-05T04:06:12.616Z,4.45
2023-01-05T04:09:19.249Z,4.40
2023-01-05T04:12:25.270Z,5.15
2023-01-05T04:15:30.963Z,5.42
2023-01-05T04:18:37.105Z,7.28
2023-01-05T04:21:42.891Z,8.95
2023-01-05T04:24:49.738Z,7.92
2023-01-05T04:27:56.394Z,8.93
2023-01-05T04:31:07.656Z,8.23
2023-01-05T04:34:15.766Z,7.25
2023-01-05T04:37:22.388Z,6.40
2023-01-05T04:40:28.350Z,6.85
2023-01-05T04:43:34.240Z,6.67
2023-01-05T04:46:40.764Z,6.53
2023-01-05T04:49:45.720Z,5.80
2023-01-05T04:52:52.223Z,4.92
2023-01-05T04:56:01.372Z,4.33
2023-01-05T04:59:09.006Z,4.65
2023-01-05T05:02:15.911Z,4.35
2023-01-05T05:05:21.649Z,4.05
2023-01-05T05:08:28.507Z,4.53
2023-01-05T05:11:35.494Z,3.98
2023-01-05T05:14:41.660Z,3.85
2023-01-05T05:17:47.715Z,3.65
2023-01-05T05:20:57.013Z,3.80
2023-01-05T05:24:04.594Z,3.98
2023-01-05T05:27:12.926Z,3.67
2023-01-05T05:30:20.958Z,3.62
2023-01-05T05:33:26.156Z,4.03
2023-01-05T05:36:32.748Z,3.60
2023-01-05T05:39:39.395Z,3.58
2023-01-05T05:42:45.348Z,3.52
2023-01-05T05:45:51.204Z,3.20
2023-01-05T05:48:56.693Z,3.47
2023-01-05T05:52:02.697Z,3.10
2023-01-05T05:55:08.690Z,3.20
2023-01-05T05:58:14.625Z,3.83
2023-01-05T06:01:21.130Z,3.83
2023-01-05T06:04:26.371Z,3.52
2023-01-05T06:07:32.790Z,3.72
2023-01-05T06:10:39.182Z,4.00
2023-01-05T06:13:44.245Z,4.03
2023-01-05T06:16:49.849Z,4.25
2023-01-05T06:19:55.898Z,4.47
2023-01-05T06:23:02.732Z,3.52
2023-01-05T06:26:08.212Z,3.37
2023-01-05T06:29:13.738Z,3.47
2023-01-05T06:32:19.194Z,3.33
2023-01-05T06:35:24.250Z,3.60
2023-01-05T06:38:31.774Z,3.80
2023-01-05T06:41:37.256Z,4.03
2023-01-05T06:44:52.081Z,3.75
2023-01-05T06:48:01.830Z,3.62
2023-01-05T06:51:17.455Z,3.65
2023-01-05T06:54:31.179Z,3.50
2023-01-05T06:58:01.036Z,4.45
2023-01-05T07:00:58.337Z,5.03
2023-01-05T07:04:04.855Z,4.97
2023-01-05T07:10:13.917Z,4.35
2023-01-05T07:13:23.323Z,4.42
2023-01-05T07:16:28.380Z,4.80
2023-01-05T07:19:33.370Z,5.08
2023-01-05T07:22:42.680Z,5.08
2023-01-05T07:25:53.220Z,4.37
2023-01-05T07:28:58.970Z,5.28
2023-01-05T07:32:04.737Z,5.08
2023-01-05T07:35:09.491Z,4.97
2023-01-05T07:38:15.551Z,5.08
2023-01-05T07:43:46.941Z,5.15
2023-01-05T07:46:52.766Z,5.03
2023-01-05T07:49:58.331Z,5.08
2023-01-05T07:55:30.760Z,4.80
2023-01-05T07:58:36.763Z,4.58
2023-01-05T08:04:08.127Z,4.83
2023-01-05T08:07:17.973Z,4.97
2023-01-05T08:10:36.559Z,3.85
2023-01-05T08:14:00.501Z,4.13
2023-01-05T08:17:06.867Z,4.47
2023-01-05T08:20:12.457Z,5.60
2023-01-05T08:23:25.841Z,4.58
2023-01-05T08:26:30.278Z,5.33
2023-01-05T08:29:35.415Z,4.50
2023-01-05T08:32:40.982Z,4.65
2023-01-05T08:35:46.894Z,5.90
2023-01-05T08:38:58.184Z,5.35
2023-01-05T08:42:03.521Z,5.70
2023-01-05T08:45:08.544Z,5.65
2023-01-05T08:48:13.577Z,5.22
2023-01-05T08:51:19.335Z,5.90
2023-01-05T08:54:24.954Z,6.25
2023-01-05T08:57:30.287Z,5.90
2023-01-05T09:00:36.392Z,5.83
2023-01-05T09:06:10.599Z,6.17
2023-01-05T09:09:16.915Z,6.08
2023-01-05T09:12:22.379Z,6.22
2023-01-05T09:15:28.864Z,5.70
2023-01-05T09:18:19.784Z,5.85
2023-01-05T09:23:55.112Z,5.35
2023-01-05T09:27:00.688Z,5.20
2023-01-05T09:32:33.381Z,4.70
2023-01-05T09:35:38.588Z,4.80
2023-01-05T09:38:47.264Z,5.03
2023-01-05T09:42:01.092Z,5.50
2023-01-05T09:45:09.075Z,5.12
2023-01-05T09:48:14.779Z,5.58
2023-01-05T09:51:19.973Z,4.78
2023-01-05T09:54:31.648Z,5.47
2023-01-05T10:00:11.002Z,5.17
2023-01-05T10:06:03.620Z,5.25
2023-01-05T10:09:08.951Z,5.70
2023-01-05T10:12:53.124Z,6.75
2023-01-05T10:16:04.191Z,5.40
2023-01-05T10:19:09.962Z,5.97
2023-01-05T10:22:42.418Z,5.50
2023-01-05T10:25:58.396Z,6.47
2023-01-05T10:29:13.416Z,5.90
2023-01-05T10:35:41.718Z,5.20
2023-01-05T10:41:29.399Z,6.33
2023-01-05T10:45:09.874Z,6.65
2023-01-05T10:50:56.836Z,6.22
2023-01-05T10:56:36.116Z,6.08
2023-01-05T10:59:41.592Z,6.08
2023-01-05T11:02:50.095Z,6.50
2023-01-05T11:06:01.979Z,6.37
2023-01-05T11:09:07.096Z,6.37
2023-01-05T11:12:15.770Z,6.75
2023-01-05T11:17:47.336Z,6.60
2023-01-05T11:23:20.069Z,7.10
2023-01-05T11:28:53.493Z,7.72
2023-01-05T11:34:41.039Z,7.97
2023-01-05T11:37:47.777Z,8.60
2023-01-05T11:40:52.977Z,7.90
2023-01-05T11:43:58.103Z,7.45
2023-01-05T11:47:04.681Z,7.55
2023-01-05T11:50:25.089Z,8.20
2023-01-05T11:53:49.620Z,8.18
2023-01-05T11:56:55.317Z,9.50
2023-01-05T12:00:03.087Z,8.33
2023-01-05T12:03:32.095Z,8.93
2023-01-05T12:07:23.544Z,9.15
2023-01-05T12:10:54.745Z,8.53
2023-01-05T12:14:31.985Z,9.10
2023-01-05T12:17:59.955Z,9.20
2023-01-05T12:21:32.468Z,8.63
2023-01-05T12:34:46.807Z,10.50
2023-01-05T12:38:32.699Z,9.63
2023-01-05T12:42:07.818Z,10.85
2023-01-05T12:45:35.369Z,10.50
2023-01-05T12:48:50.332Z,10.48
2023-01-05T12:52:06.571Z,11.90
2023-01-05T12:55:23.685Z,11.45
2023-01-05T12:58:36.447Z,11.05
2023-01-05T13:01:44.752Z,11.30
2023-01-05T13:05:11.566Z,12.68
2023-01-05T13:08:27.639Z,12.78
2023-01-05T13:11:52.564Z,12.73
2023-01-05T13:15:03.016Z,12.95
2023-01-05T13:18:09.637Z,11.73
2023-01-05T13:21:18.274Z,12.82
2023-01-05T13:24:35.007Z,13.05
2023-01-05T13:27:40.810Z,12.98
2023-01-05T13:30:50.064Z,13.38
2023-01-05T13:34:15.442Z,12.95
2023-01-05T13:37:58.198Z,11.57
2023-01-05T13:41:23.711Z,12.07
2023-01-05T13:44:48.095Z,11.73
2023-01-05T13:48:44.055Z,12.65
2023-01-05T13:52:06.874Z,12.20
2023-01-05T13:55:25.043Z,11.40
2023-01-05T13:58:54.294Z,8.13
2023-01-05T14:01:59.739Z,6.60
2023-01-05T14:05:06.052Z,7.03
2023-01-05T14:08:11.572Z,6.67
2023-01-05T14:11:35.632Z,7.30
2023-01-05T14:14:42.778Z,6.75
2023-01-05T14:18:12.320Z,8.10
2023-01-05T14:21:27.749Z,7.12
2023-01-05T14:24:56.729Z,7.53
2023-01-05T14:28:44.729Z,7.95
2023-01-05T14:31:53.980Z,7.47
2023-01-05T14:35:41.755Z,8.25
2023-01-05T14:38:47.729Z,7.53
2023-01-05T14:41:53.775Z,8.15
2023-01-05T14:45:21.437Z,10.13
2023-01-05T14:48:36.092Z,9.83
2023-01-05T14:51:46.251Z,10.28
2023-01-05T14:58:06.278Z,11.05
2023-01-05T15:04:34.977Z,13.03
2023-01-05T15:08:22.585Z,12.50
2023-01-05T15:11:38.844Z,13.10
2023-01-05T15:15:07.618Z,13.08
2023-01-05T15:18:32.990Z,11.60
2023-01-05T15:22:13.375Z,11.75
2023-01-05T15:25:46.030Z,12.85
2023-01-05T15:29:07.590Z,11.88
2023-01-05T15:32:22.787Z,12.28
2023-01-05T15:35:38.977Z,11.93
2023-01-05T15:38:45.208Z,12.15
2023-01-05T15:41:51.139Z,11.18
2023-01-05T15:45:00.432Z,12.80
2023-01-05T15:48:09.129Z,14.33
2023-01-05T15:51:14.738Z,13.98
2023-01-05T15:54:20.829Z,13.90
2023-01-05T15:57:35.199Z,14.47
2023-01-05T16:00:44.663Z,15.72
2023-01-05T16:03:51.407Z,16.50
2023-01-05T16:07:12.752Z,15.25
2023-01-05T16:12:44.669Z,16.00
2023-01-05T16:20:48.972Z,15.30
2023-01-05T16:26:21.297Z,14.45
2023-01-05T16:31:53.523Z,16.65
2023-01-05T16:37:32.849Z,16.87
2023-01-05T16:40:40.739Z,18.35
2023-01-05T16:43:37.567Z,18.48
2023-01-05T16:46:54.654Z,17.90
2023-01-05T16:55:02.980Z,19.57
2023-01-05T16:58:08.702Z,19.70
2023-01-05T17:03:46.395Z,20.05
2023-01-05T17:09:19.856Z,18.85
2023-01-05T17:15:07.247Z,20.25
2023-01-05T17:18:15.171Z,21.25
2023-01-05T17:21:20.763Z,20.08
2023-01-05T17:24:28.257Z,20.02
2023-01-05T17:29:59.394Z,21.27
2023-01-05T17:35:33.213Z,21.27
2023-01-05T17:43:35.949Z,18.85
2023-01-05T17:49:07.787Z,20.92
2023-01-05T17:54:42.017Z,22.45
2023-01-05T18:00:19.484Z,22.15
2023-01-05T18:05:53.415Z,21.62
2023-01-05T18:11:27.654Z,21.95
2023-01-05T18:16:59.595Z,22.55
2023-01-05T18:22:31.744Z,20.92
2023-01-05T18:28:04.930Z,20.72
2023-01-05T18:33:38.886Z,22.48
2023-01-05T18:39:11.385Z,22.95
2023-01-05T18:42:17.080Z,20.65
2023-01-05T18:47:49.683Z,21.70
2023-01-05T18:50:58.551Z,22.35
2023-01-05T18:56:30.332Z,21.27
2023-01-05T19:04:33.283Z,21.68
2023-01-05T19:10:04.928Z,21.33
2023-01-05T19:15:40.362Z,21.35
2023-01-05T19:21:13.151Z,21.62
2023-01-05T19:26:46.886Z,22.80
2023-01-05T19:29:52.053Z,21.00
2023-01-05T19:32:50.707Z,23.07
2023-01-05T19:35:55.541Z,21.57
2023-01-05T19:39:02.189Z,22.00
2023-01-05T19:44:35.924Z,22.32
2023-01-05T19:47:43.153Z,20.32
2023-01-05T19:53:14.085Z,21.60
2023-01-05T19:58:49.623Z,22.32
2023-01-05T20:04:23.724Z,22.45
2023-01-05T20:09:58.386Z,20.52
2023-01-05T20:15:34.428Z,17.17
2023-01-05T20:21:09.536Z,19.80
2023-01-05T20:29:14.077Z,18.92
2023-01-05T20:32:24.192Z,20.70
2023-01-05T20:35:29.602Z,21.25
2023-01-05T20:38:34.791Z,18.32
2023-01-05T20:41:44.168Z,20.50
2023-01-05T20:44:51.535Z,20.08
2023-01-05T20:50:23.764Z,19.92
2023-01-05T20:55:59.468Z,18.98
2023-01-05T21:04:04.700Z,19.02
2023-01-05T21:07:10.007Z,19.77
2023-01-05T21:12:41.927Z,20.57
2023-01-05T21:18:15.157Z,17.73
2023-01-05T21:23:49.486Z,19.70
2023-01-05T21:29:21.545Z,20.25
2023-01-05T21:34:55.568Z,18.67
2023-01-05T21:40:30.517Z,18.98
2023-01-05T21:46:03.088Z,16.10
2023-01-05T21:51:54.513Z,19.45
2023-01-05T21:55:18.475Z,18.85
2023-01-05T21:58:07.531Z,18.35
2023-01-05T22:03:41.953Z,18.30
2023-01-05T22:09:13.675Z,17.77
2023-01-05T22:12:20.354Z,15.68
2023-01-05T22:17:51.920Z,18.73
2023-01-05T22:23:27.211Z,16.70
2023-01-05T22:29:03.275Z,17.48
2023-01-05T22:34:36.761Z,16.12
2023-01-05T22:37:42.230Z,15.68
2023-01-05T22:40:47.962Z,17.07
2023-01-05T22:43:54.522Z,15.18
2023-01-05T22:47:00.139Z,15.80
2023-01-05T22:50:05.563Z,15.58
2023-01-05T22:53:11.272Z,14.40
2023-01-05T22:56:17.107Z,15.98
2023-01-05T22:59:22.775Z,14.63
2023-01-05T23:02:29.293Z,14.45
2023-01-05T23:05:35.198Z,14.07
2023-01-05T23:08:41.804Z,13.43
2023-01-05T23:11:49.705Z,14.55
2023-01-05T23:14:56.425Z,13.32
2023-01-05T23:18:02.121Z,12.85
2023-01-05T23:21:13.295Z,13.40
2023-01-05T23:24:19.394Z,13.22
2023-01-05T23:27:25.177Z,12.55
2023-01-05T23:30:30.881Z,13.10
2023-01-05T23:33:38.550Z,12.30
2023-01-05T23:36:44.775Z,11.45
2023-01-05T23:39:50.433Z,11.65
2023-01-05T23:42:57.655Z,12.80
2023-01-05T23:46:03.063Z,11.38
2023-01-05T23:49:08.512Z,10.80
2023-01-05T23:52:14.524Z,11.30
2023-01-05T23:55:21.151Z,12.98
2023-01-05T23:58:26.854Z,12.55
